Time;durP1;ratioP1;P1;durP2;ratioP2;P2;SDS_P1;SDS_P2;PMS_P1;PMS_P2;Temp;Humidity;BMP_temperature;BMP_pressure;BME280_temperature;BME280_humidity;BME280_pressure;Samples;Min_cycle;Max_cycle;Signal;HPM_P1;HPM_P2
2022/02/21 00:01:23;;;;;;;11.88;1.65;;;5.80;99.90;;;;;;5008293;28;20042;-90
2022/02/21 00:03:49;;;;;;;11.52;1.52;;;5.80;99.90;;;;;;5007200;28;20072;-91
2022/02/21 00:06:15;;;;;;;7.18;1.45;;;5.80;99.90;;;;;;5027024;28;20034;-90
2022/02/21 00:08:41;;;;;;;11.38;1.50;;;5.70;99.90;;;;;;4998545;28;20038;-89
2022/02/21 00:11:07;;;;;;;15.02;1.80;;;5.60;99.90;;;;;;5004024;28;20036;-90
2022/02/21 00:13:33;;;;;;;11.30;2.08;;;5.60;99.90;;;;;;5008276;28;20463;-90
2022/02/21 00:16:00;;;;;;;13.63;1.58;;;5.60;99.90;;;;;;5011815;28;20088;-89
2022/02/21 00:18:27;;;;;;;11.35;2.05;;;5.60;99.90;;;;;;5005845;28;20030;-91
2022/02/21 00:20:53;;;;;;;10.73;1.90;;;5.60;99.90;;;;;;4999674;28;20056;-90
2022/02/21 00:23:19;;;;;;;8.30;1.83;;;5.60;99.90;;;;;;4999555;28;20042;-88
2022/02/21 00:25:44;;;;;;;9.82;2.58;;;5.60;99.90;;;;;;5003625;28;20050;-87
2022/02/21 00:28:10;;;;;;;15.38;2.17;;;5.50;99.90;;;;;;5009904;28;20065;-88
2022/02/21 00:30:35;;;;;;;15.23;2.22;;;5.50;99.90;;;;;;5009952;28;20076;-91
2022/02/21 00:33:01;;;;;;;15.00;2.10;;;5.40;99.90;;;;;;5008790;28;20095;-89
2022/02/21 00:35:27;;;;;;;11.18;1.73;;;5.40;99.90;;;;;;5007496;28;20076;-88
2022/02/21 00:37:52;;;;;;;12.75;2.10;;;5.40;99.90;;;;;;5007252;28;20041;-87
2022/02/21 00:40:18;;;;;;;13.65;2.30;;;5.50;99.90;;;;;;5009310;28;20607;-89
2022/02/21 00:42:44;;;;;;;12.02;1.92;;;5.40;99.90;;;;;;5008877;28;20532;-88
2022/02/21 00:45:10;;;;;;;15.57;2.28;;;5.40;99.90;;;;;;5008367;28;20072;-89
2022/02/21 00:47:38;;;;;;;18.92;2.88;;;5.40;99.90;;;;;;5005303;28;20080;-89
2022/02/21 00:50:04;;;;;;;21.75;2.83;;;5.40;99.90;;;;;;5019022;28;20040;-90
2022/02/21 00:52:30;;;;;;;23.55;3.30;;;5.50;99.90;;;;;;4984630;28;20121;-89
2022/02/21 00:54:56;;;;;;;15.82;2.75;;;5.50;99.90;;;;;;5000781;28;20611;-89
2022/02/21 00:57:21;;;;;;;15.73;2.55;;;5.40;99.90;;;;;;5000677;28;20483;-91
2022/02/21 00:59:48;;;;;;;19.63;3.28;;;5.50;99.90;;;;;;5019012;28;20053;-90
2022/02/21 01:02:14;;;;;;;20.50;3.13;;;5.40;99.90;;;;;;5001121;28;20029;-90
2022/02/21 01:04:40;;;;;;;15.90;2.65;;;5.40;99.90;;;;;;5017746;28;20141;-90
2022/02/21 01:07:06;;;;;;;17.83;3.03;;;5.40;99.90;;;;;;5000258;28;20121;-90
2022/02/21 01:09:32;;;;;;;19.63;3.03;;;5.40;99.90;;;;;;5000810;28;20092;-89
2022/02/21 01:11:57;;;;;;;17.65;3.22;;;5.50;99.90;;;;;;5000660;28;20088;-89
2022/02/21 01:14:23;;;;;;;19.98;3.17;;;5.40;99.90;;;;;;5001111;28;20030;-91
2022/02/21 01:16:49;;;;;;;15.40;3.65;;;5.50;99.90;;;;;;5002297;28;20108;-89
2022/02/21 01:19:36;;;;;;;19.25;3.33;;;5.40;99.90;;;;;;5003412;28;20495;-87
2022/02/21 01:22:03;;;;;;;19.25;2.97;;;5.20;99.90;;;;;;5020989;28;20061;-89
2022/02/21 01:24:30;;;;;;;14.48;2.55;;;5.20;99.90;;;;;;5018421;28;20038;-89
2022/02/21 01:26:57;;;;;;;20.67;3.35;;;5.20;99.90;;;;;;5002460;28;20026;-89
2022/02/21 01:29:22;;;;;;;17.80;2.78;;;5.10;99.90;;;;;;5001759;28;20121;-89
2022/02/21 01:31:48;;;;;;;15.63;2.85;;;5.10;99.90;;;;;;5004503;28;20053;-88
2022/02/21 01:34:16;;;;;;;16.50;2.67;;;5.10;99.90;;;;;;5002727;28;20432;-89
2022/02/21 01:36:42;;;;;;;16.92;2.72;;;5.10;99.90;;;;;;4986095;28;20038;-86
2022/02/21 01:39:08;;;;;;;11.77;2.30;;;5.10;99.90;;;;;;5001129;28;20050;-89
2022/02/21 01:41:35;;;;;;;15.38;3.05;;;5.10;99.90;;;;;;4999354;28;20050;-90
2022/02/21 01:44:06;;;;;;;15.00;2.70;;;5.10;99.90;;;;;;4999467;28;20058;-91
2022/02/21 01:46:31;;;;;;;14.77;2.47;;;5.20;99.90;;;;;;5000437;28;20133;-89
2022/02/21 01:48:57;;;;;;;13.32;3.00;;;5.10;99.90;;;;;;5003236;28;20137;-89
2022/02/21 01:51:24;;;;;;;11.77;2.00;;;5.20;99.90;;;;;;5003161;28;20038;-86
2022/02/21 01:53:50;;;;;;;15.43;2.28;;;5.20;99.90;;;;;;5002821;28;20038;-89
2022/02/21 01:56:16;;;;;;;7.95;1.75;;;5.10;99.90;;;;;;5000237;28;20058;-89
2022/02/21 01:58:42;;;;;;;15.07;2.50;;;5.10;99.90;;;;;;5003987;28;20034;-90
2022/02/21 02:01:07;;;;;;;11.48;2.05;;;5.10;99.90;;;;;;5003602;28;20037;-86
2022/02/21 02:03:33;;;;;;;11.52;1.80;;;5.10;99.90;;;;;;5002669;28;20046;-88
2022/02/21 02:05:58;;;;;;;10.75;2.03;;;5.00;99.90;;;;;;5003133;28;20034;-92
2022/02/21 02:08:24;;;;;;;11.68;2.10;;;5.10;99.90;;;;;;5005098;28;20035;-88
2022/02/21 02:10:50;;;;;;;15.13;2.75;;;5.20;99.90;;;;;;5002779;28;20093;-88
2022/02/21 02:13:15;;;;;;;16.42;2.25;;;5.20;99.90;;;;;;5003213;28;20066;-91
2022/02/21 02:15:41;;;;;;;13.68;2.47;;;5.10;99.90;;;;;;4999586;28;20117;-89
2022/02/21 02:18:07;;;;;;;17.63;2.50;;;5.10;99.90;;;;;;5000760;28;20519;-91
2022/02/21 02:20:32;;;;;;;14.48;2.30;;;5.20;99.90;;;;;;5005755;28;20038;-88
2022/02/21 02:22:59;;;;;;;18.30;2.42;;;5.20;99.90;;;;;;5001678;28;20049;-89
2022/02/21 02:25:24;;;;;;;20.00;2.97;;;5.20;99.90;;;;;;4996635;28;20055;-91
2022/02/21 02:27:50;;;;;;;17.67;2.30;;;5.20;99.90;;;;;;4997498;28;20107;-88
2022/02/21 02:30:16;;;;;;;13.05;2.50;;;5.20;99.90;;;;;;4996661;28;20054;-88
2022/02/21 02:32:46;;;;;;;16.73;3.65;;;5.30;99.90;;;;;;4999224;28;20040;-89
2022/02/21 02:35:11;;;;;;;19.00;2.90;;;5.30;99.90;;;;;;4996100;28;20034;-89
2022/02/21 02:37:37;;;;;;;18.95;3.05;;;5.20;99.90;;;;;;4994799;28;20054;-88
2022/02/21 02:40:03;;;;;;;11.23;2.20;;;4.80;99.90;;;;;;4996871;28;20035;-89
2022/02/21 02:42:29;;;;;;;19.40;3.60;;;4.60;99.90;;;;;;4995088;28;20030;-90
2022/02/21 02:44:54;;;;;;;15.98;2.60;;;4.40;99.90;;;;;;4995235;28;20484;-90
2022/02/21 02:47:20;;;;;;;13.10;2.28;;;4.30;99.90;;;;;;4995124;28;20042;-89
2022/02/21 02:49:46;;;;;;;13.85;2.92;;;4.30;99.90;;;;;;4995072;28;20030;-89
2022/02/21 02:52:11;;;;;;;10.98;2.70;;;4.40;99.90;;;;;;4993628;28;20050;-89
2022/02/21 02:54:37;;;;;;;11.57;1.95;;;4.40;99.90;;;;;;4994548;28;20120;-89
2022/02/21 02:57:03;;;;;;;18.33;2.42;;;4.40;99.90;;;;;;4995137;28;20022;-88
2022/02/21 02:59:29;;;;;;;11.90;2.67;;;4.30;99.90;;;;;;4995302;28;20038;-89
2022/02/21 03:01:55;;;;;;;14.30;2.28;;;4.40;99.90;;;;;;4996390;28;20396;-90
2022/02/21 03:04:21;;;;;;;14.70;2.65;;;4.40;99.90;;;;;;4994695;28;20042;-88
2022/02/21 03:06:46;;;;;;;12.25;2.10;;;4.30;99.90;;;;;;4994771;28;20030;-88
2022/02/21 03:09:12;;;;;;;12.43;2.03;;;4.30;99.90;;;;;;4995102;28;20034;-90
2022/02/21 03:11:39;;;;;;;11.18;2.08;;;4.20;99.90;;;;;;4995696;28;20026;-89
2022/02/21 03:14:05;;;;;;;11.82;2.10;;;4.20;99.90;;;;;;4994973;28;20189;-88
2022/02/21 03:16:31;;;;;;;11.85;1.90;;;4.10;99.90;;;;;;5011312;28;20408;-92
2022/02/21 03:18:57;;;;;;;10.10;2.80;;;4.10;99.90;;;;;;4995904;28;20049;-88
2022/02/21 03:21:23;;;;;;;15.77;3.28;;;4.00;99.90;;;;;;4997455;28;20035;-88
2022/02/21 03:23:49;;;;;;;17.23;2.65;;;4.10;99.90;;;;;;4995602;28;20057;-88
2022/02/21 03:26:15;;;;;;;11.52;1.90;;;4.20;99.90;;;;;;4994735;28;20097;-89
2022/02/21 03:28:40;;;;;;;14.25;2.70;;;4.20;99.90;;;;;;4993724;28;20042;-89
2022/02/21 03:31:08;;;;;;;12.68;2.63;;;4.30;99.90;;;;;;4997646;28;20026;-89
2022/02/21 03:33:33;;;;;;;12.48;1.98;;;4.20;99.90;;;;;;4995541;28;20089;-89
2022/02/21 03:35:59;;;;;;;18.00;3.35;;;4.00;99.90;;;;;;4994325;28;20374;-89
2022/02/21 03:38:25;;;;;;;17.38;3.08;;;3.90;99.90;;;;;;4993672;28;20050;-88
2022/02/21 03:40:52;;;;;;;10.52;2.10;;;3.70;99.90;;;;;;4993829;28;20038;-89
2022/02/21 03:43:18;;;;;;;20.75;2.90;;;3.70;99.90;;;;;;4993892;28;20065;-89
2022/02/21 03:45:43;;;;;;;15.68;2.53;;;3.70;99.90;;;;;;4993953;28;20042;-90
2022/02/21 03:48:09;;;;;;;17.17;3.45;;;3.70;99.90;;;;;;4995004;28;20034;-91
2022/02/21 03:50:35;;;;;;;13.73;2.65;;;3.70;99.90;;;;;;4994933;28;20030;-90
2022/02/21 03:53:00;;;;;;;16.65;3.47;;;3.80;99.90;;;;;;4993662;28;20074;-90
2022/02/21 03:55:26;;;;;;;12.65;2.28;;;3.80;99.90;;;;;;4994115;28;20158;-89
2022/02/21 03:57:52;;;;;;;13.20;2.92;;;3.90;99.90;;;;;;4995445;28;20038;-90
2022/02/21 04:00:21;;;;;;;15.35;2.83;;;3.90;99.90;;;;;;4994020;28;20034;-89
2022/02/21 04:02:47;;;;;;;15.80;2.45;;;3.90;99.90;;;;;;4994835;28;20049;-89
2022/02/21 04:05:14;;;;;;;12.75;2.38;;;4.00;99.90;;;;;;4997155;28;20034;-90
2022/02/21 04:07:42;;;;;;;14.52;2.97;;;4.00;99.90;;;;;;4997372;28;20081;-89
2022/02/21 04:10:09;;;;;;;15.32;2.40;;;3.90;99.90;;;;;;4997125;28;20073;-91
2022/02/21 04:12:35;;;;;;;15.30;2.88;;;3.90;99.90;;;;;;4998439;28;20031;-90
2022/02/21 04:15:00;;;;;;;17.75;2.50;;;3.90;99.90;;;;;;4997100;28;20439;-89
2022/02/21 04:17:26;;;;;;;12.82;2.22;;;3.90;99.90;;;;;;4997851;28;20034;-87
2022/02/21 04:19:52;;;;;;;16.05;3.28;;;4.00;99.90;;;;;;5000199;28;20030;-89
2022/02/21 04:22:17;;;;;;;14.70;2.30;;;4.00;99.90;;;;;;4998307;28;20026;-89
2022/02/21 04:24:43;;;;;;;24.70;3.20;;;4.10;99.90;;;;;;4997608;28;20046;-89
2022/02/21 04:27:09;;;;;;;21.10;3.30;;;4.10;99.90;;;;;;4997527;28;20041;-89
2022/02/21 04:29:34;;;;;;;15.88;2.55;;;4.20;99.90;;;;;;4997883;28;20038;-89
2022/02/21 04:32:00;;;;;;;16.20;2.85;;;4.20;99.90;;;;;;4997723;28;20026;-89
2022/02/21 04:34:27;;;;;;;20.83;3.03;;;4.20;99.90;;;;;;4998803;28;20031;-89
2022/02/21 04:36:52;;;;;;;18.05;2.92;;;4.20;99.90;;;;;;4997300;28;20098;-89
2022/02/21 04:39:18;;;;;;;16.48;3.10;;;4.20;99.90;;;;;;4997159;28;20089;-89
2022/02/21 04:41:44;;;;;;;15.88;2.50;;;4.30;99.90;;;;;;4997337;28;20121;-88
2022/02/21 04:44:09;;;;;;;14.23;2.97;;;4.20;99.90;;;;;;4997848;28;20439;-90
2022/02/21 04:46:35;;;;;;;14.50;2.67;;;4.20;99.90;;;;;;4997082;28;20065;-88
2022/02/21 04:49:01;;;;;;;11.85;2.45;;;4.20;99.90;;;;;;4998157;28;20034;-89
2022/02/21 04:51:26;;;;;;;13.65;3.03;;;4.10;99.90;;;;;;4996580;28;20026;-88
2022/02/21 04:53:52;;;;;;;14.38;2.33;;;4.20;99.90;;;;;;4997990;28;20045;-90
2022/02/21 04:56:18;;;;;;;12.80;3.33;;;4.10;99.90;;;;;;4998144;28;20041;-89
2022/02/21 04:58:44;;;;;;;18.20;2.63;;;4.10;99.90;;;;;;4998226;28;20034;-88
2022/02/21 05:01:09;;;;;;;16.98;2.22;;;4.10;99.90;;;;;;5014388;28;20030;-89
2022/02/21 05:03:35;;;;;;;13.02;1.95;;;4.00;99.90;;;;;;5013966;28;20034;-90
2022/02/21 05:06:01;;;;;;;13.45;2.30;;;4.10;99.90;;;;;;5018966;28;20034;-88
2022/02/21 05:08:27;;;;;;;18.02;2.85;;;4.10;99.90;;;;;;5018253;28;20082;-86
2022/02/21 05:10:53;;;;;;;15.35;2.90;;;4.20;99.90;;;;;;5009537;28;20026;-87
2022/02/21 05:13:19;;;;;;;12.20;2.40;;;4.20;99.90;;;;;;5003551;28;20066;-89
2022/02/21 05:15:44;;;;;;;12.80;2.08;;;4.20;99.90;;;;;;4995986;28;20047;-87
2022/02/21 05:18:10;;;;;;;13.98;2.60;;;4.30;99.90;;;;;;4998511;28;20093;-89
2022/02/21 05:20:36;;;;;;;15.73;2.70;;;4.30;99.90;;;;;;4998285;28;20125;-88
2022/02/21 05:23:02;;;;;;;17.25;2.60;;;4.40;99.90;;;;;;4996972;28;20077;-89
2022/02/21 05:25:27;;;;;;;12.40;1.90;;;4.40;99.90;;;;;;4996098;28;20038;-88
2022/02/21 05:27:53;;;;;;;16.50;3.05;;;4.40;99.90;;;;;;4996238;28;20041;-87
2022/02/21 05:30:19;;;;;;;13.55;2.00;;;4.50;99.90;;;;;;4997180;28;20174;-88
2022/02/21 05:32:45;;;;;;;17.02;2.70;;;4.50;99.90;;;;;;4995631;28;20030;-86
2022/02/21 05:35:11;;;;;;;17.50;3.20;;;4.50;99.90;;;;;;4994673;28;20027;-88
2022/02/21 05:37:37;;;;;;;11.45;1.98;;;4.50;99.90;;;;;;4994710;28;20054;-90
2022/02/21 05:40:04;;;;;;;14.77;2.08;;;4.50;99.90;;;;;;4994744;28;20134;-89
2022/02/21 05:42:30;;;;;;;16.38;2.42;;;4.50;99.90;;;;;;4994782;28;20042;-88
2022/02/21 05:44:56;;;;;;;16.35;1.95;;;4.50;99.90;;;;;;4994980;28;20505;-87
2022/02/21 05:47:22;;;;;;;17.55;2.47;;;4.60;99.90;;;;;;4994242;28;20041;-90
2022/02/21 05:49:48;;;;;;;16.83;2.58;;;4.60;99.90;;;;;;4994849;28;20065;-88
2022/02/21 05:52:14;;;;;;;11.60;2.67;;;4.60;99.90;;;;;;4994966;28;20041;-89
2022/02/21 05:54:39;;;;;;;14.23;2.03;;;4.50;99.90;;;;;;4994072;28;20041;-89
2022/02/21 05:57:05;;;;;;;13.02;2.40;;;4.50;99.90;;;;;;4994300;28;20513;-89
2022/02/21 05:59:32;;;;;;;16.33;2.90;;;4.40;99.90;;;;;;4993985;28;20377;-90
2022/02/21 06:01:58;;;;;;;11.95;2.20;;;4.40;99.90;;;;;;5010310;28;20034;-89
2022/02/21 06:04:23;;;;;;;16.83;3.25;;;4.40;99.90;;;;;;4994811;28;20053;-89
2022/02/21 06:06:49;;;;;;;13.95;2.72;;;4.40;99.90;;;;;;4993397;28;20038;-88
2022/02/21 06:09:14;;;;;;;14.38;2.63;;;4.40;99.90;;;;;;4995076;28;20034;-88
2022/02/21 06:11:40;;;;;;;9.77;2.08;;;4.40;99.90;;;;;;4993947;28;20508;-90
2022/02/21 06:14:06;;;;;;;14.05;2.78;;;4.30;99.90;;;;;;4991981;28;20504;-88
2022/02/21 06:16:31;;;;;;;15.43;2.38;;;4.30;99.90;;;;;;4995452;28;20042;-89
2022/02/21 06:18:57;;;;;;;15.75;2.53;;;4.30;99.90;;;;;;4994133;28;20034;-87
2022/02/21 06:21:23;;;;;;;13.25;2.20;;;4.30;99.90;;;;;;5008914;28;20033;-87
2022/02/21 06:23:48;;;;;;;16.50;3.22;;;4.30;99.90;;;;;;4987178;28;20116;-87
2022/02/21 06:26:14;;;;;;;18.10;3.15;;;4.30;99.90;;;;;;4992579;28;20488;-86
2022/02/21 06:28:40;;;;;;;13.35;2.38;;;4.30;99.90;;;;;;4994030;28;20034;-86
2022/02/21 06:31:09;;;;;;;12.13;2.80;;;4.30;99.90;;;;;;5010307;28;20177;-86
2022/02/21 06:33:38;;;;;;;15.98;2.38;;;4.30;99.90;;;;;;4993359;28;20037;-86
2022/02/21 06:36:05;;;;;;;18.17;2.55;;;4.30;99.90;;;;;;4993080;28;20366;-86
2022/02/21 06:38:30;;;;;;;12.75;2.15;;;4.30;99.90;;;;;;4992215;28;20058;-87
2022/02/21 06:40:57;;;;;;;15.68;3.05;;;4.40;99.90;;;;;;4994234;28;20183;-85
2022/02/21 06:43:22;;;;;;;15.90;2.55;;;4.40;99.90;;;;;;4994929;28;20475;-86
2022/02/21 06:45:48;;;;;;;16.77;3.58;;;4.50;99.90;;;;;;4994020;28;20038;-87
2022/02/21 06:48:14;;;;;;;17.52;2.70;;;4.50;99.90;;;;;;4994777;28;20039;-85
2022/02/21 06:50:39;;;;;;;22.80;3.35;;;4.50;99.90;;;;;;4994314;28;20105;-86
2022/02/21 06:53:05;;;;;;;17.60;3.10;;;4.50;99.90;;;;;;4993395;28;20026;-86
2022/02/21 06:55:31;;;;;;;17.27;3.20;;;4.60;99.90;;;;;;4994245;28;20035;-86
2022/02/21 06:57:56;;;;;;;17.67;2.65;;;4.70;99.90;;;;;;4993817;28;20089;-86
2022/02/21 07:00:22;;;;;;;16.75;2.40;;;4.80;99.90;;;;;;4993164;28;20396;-87
2022/02/21 07:02:49;;;;;;;14.88;2.90;;;4.80;99.90;;;;;;4993973;28;20473;-87
2022/02/21 07:05:15;;;;;;;18.20;2.70;;;4.80;99.90;;;;;;4993264;28;20042;-86
2022/02/21 07:07:41;;;;;;;16.38;2.70;;;4.80;99.90;;;;;;4993680;28;20049;-87
2022/02/21 07:10:07;;;;;;;18.98;3.20;;;4.90;99.90;;;;;;4994909;28;20034;-86
2022/02/21 07:12:33;;;;;;;18.02;2.38;;;4.80;99.90;;;;;;5005957;28;20436;-87
2022/02/21 07:14:59;;;;;;;22.33;3.05;;;5.00;99.90;;;;;;4993589;28;20129;-86
2022/02/21 07:17:25;;;;;;;19.95;2.63;;;4.90;99.90;;;;;;4993954;28;20034;-87
2022/02/21 07:19:52;;;;;;;16.73;2.90;;;5.00;99.90;;;;;;4993625;28;20041;-87
2022/02/21 07:22:17;;;;;;;15.00;2.85;;;5.00;99.90;;;;;;4993713;28;20035;-87
2022/02/21 07:24:43;;;;;;;14.35;2.38;;;5.10;99.90;;;;;;4994469;28;20038;-86
2022/02/21 07:27:09;;;;;;;10.15;2.28;;;5.10;99.90;;;;;;4993826;28;20088;-88
2022/02/21 07:29:36;;;;;;;21.02;3.22;;;5.10;99.90;;;;;;4993881;28;20042;-85
2022/02/21 07:32:03;;;;;;;19.58;2.88;;;5.10;99.90;;;;;;5001901;28;20038;-87
2022/02/21 07:34:29;;;;;;;14.23;2.75;;;5.10;99.90;;;;;;4999211;28;20034;-87
2022/02/21 07:36:54;;;;;;;15.48;2.70;;;5.10;99.90;;;;;;4996993;28;20084;-86
2022/02/21 07:39:20;;;;;;;14.93;2.22;;;5.20;99.90;;;;;;5005582;28;20096;-88
2022/02/21 07:41:45;;;;;;;18.13;2.63;;;5.20;99.90;;;;;;4982882;28;20035;-87
2022/02/21 07:44:11;;;;;;;16.67;2.67;;;5.20;99.90;;;;;;4988698;28;20046;-86
2022/02/21 07:46:37;;;;;;;15.30;2.17;;;5.20;99.90;;;;;;4985825;28;20045;-87
2022/02/21 07:49:02;;;;;;;15.32;2.92;;;5.20;99.90;;;;;;4995375;28;20049;-88
2022/02/21 07:51:28;;;;;;;15.90;3.13;;;5.20;99.90;;;;;;4991831;28;20477;-90
2022/02/21 07:53:55;;;;;;;12.57;2.17;;;5.20;99.90;;;;;;5006135;28;20038;-87
2022/02/21 07:56:21;;;;;;;14.55;2.50;;;5.20;99.90;;;;;;4999810;28;20480;-85
2022/02/21 07:58:47;;;;;;;15.20;2.55;;;5.30;99.90;;;;;;5007424;28;20070;-85
2022/02/21 08:01:12;;;;;;;15.13;2.60;;;5.30;99.90;;;;;;4977457;28;20097;-85
2022/02/21 08:03:38;;;;;;;16.88;2.50;;;5.30;99.90;;;;;;4991966;28;20050;-87
2022/02/21 08:06:06;;;;;;;18.42;2.50;;;5.40;99.90;;;;;;4992185;28;20333;-85
2022/02/21 08:08:32;;;;;;;13.85;2.45;;;5.40;99.90;;;;;;4993249;28;20062;-85
2022/02/21 08:10:57;;;;;;;17.77;3.00;;;5.50;99.90;;;;;;4994248;28;20496;-85
2022/02/21 08:13:23;;;;;;;10.90;2.35;;;5.50;99.90;;;;;;4996107;28;20030;-87
2022/02/21 08:15:49;;;;;;;15.82;2.38;;;5.60;99.90;;;;;;4990340;28;20042;-85
2022/02/21 08:18:14;;;;;;;16.42;3.63;;;5.70;99.90;;;;;;4977412;28;20058;-86
2022/02/21 08:20:40;;;;;;;18.25;2.38;;;5.70;99.90;;;;;;4988292;28;20069;-86
2022/02/21 08:23:06;;;;;;;14.35;2.63;;;5.70;99.90;;;;;;4981307;28;20023;-87
2022/02/21 08:25:32;;;;;;;12.70;2.35;;;5.70;99.90;;;;;;4982683;28;20121;-87
2022/02/21 08:27:57;;;;;;;16.50;3.03;;;5.70;99.90;;;;;;4996216;28;20031;-86
2022/02/21 08:30:25;;;;;;;13.95;2.00;;;5.70;99.90;;;;;;4973830;28;20053;-86
2022/02/21 08:32:51;;;;;;;19.65;2.90;;;5.60;99.90;;;;;;5007925;28;20041;-87
2022/02/21 08:35:17;;;;;;;16.92;3.08;;;5.60;99.90;;;;;;4998046;28;20069;-85
2022/02/21 08:37:44;;;;;;;12.15;2.15;;;5.50;99.90;;;;;;5004944;28;20046;-88
2022/02/21 08:40:12;;;;;;;17.45;3.80;;;5.50;99.90;;;;;;4996895;28;20034;-85
2022/02/21 08:42:38;;;;;;;16.40;2.47;;;5.50;99.90;;;;;;5013067;28;20120;-86
2022/02/21 08:45:05;;;;;;;13.50;2.92;;;5.50;99.90;;;;;;5013437;28;20052;-85
2022/02/21 08:47:31;;;;;;;15.35;2.20;;;5.50;99.90;;;;;;4997742;28;20060;-85
2022/02/21 08:49:57;;;;;;;14.68;2.78;;;5.50;99.90;;;;;;4997771;28;20036;-86
2022/02/21 08:52:22;;;;;;;13.32;2.70;;;5.40;99.90;;;;;;5006595;28;20022;-85
2022/02/21 08:54:48;;;;;;;16.73;2.35;;;5.30;99.90;;;;;;5024864;28;20014;-83
2022/02/21 08:57:15;;;;;;;14.68;2.30;;;5.20;99.90;;;;;;5025356;28;20044;-86
2022/02/21 08:59:42;;;;;;;16.20;2.42;;;5.10;99.90;;;;;;5019311;28;20118;-87
2022/02/21 09:02:08;;;;;;;15.63;2.97;;;4.90;99.90;;;;;;5017205;28;20038;-89
2022/02/21 09:04:34;;;;;;;15.52;2.45;;;4.60;99.90;;;;;;4998493;28;20500;-85
2022/02/21 09:07:00;;;;;;;17.20;2.75;;;4.40;99.90;;;;;;4998717;28;20026;-85
2022/02/21 09:09:25;;;;;;;14.82;2.40;;;4.30;99.90;;;;;;4998247;28;20065;-87
2022/02/21 09:11:51;;;;;;;10.63;2.45;;;4.30;99.90;;;;;;5015636;28;20068;-87
2022/02/21 09:14:18;;;;;;;13.15;2.30;;;4.20;99.90;;;;;;4999813;28;20129;-85
2022/02/21 09:16:44;;;;;;;16.77;2.55;;;4.10;99.90;;;;;;5017158;28;20089;-89
2022/02/21 09:19:10;;;;;;;17.83;2.58;;;4.10;99.90;;;;;;5018265;28;20034;-88
2022/02/21 09:21:35;;;;;;;17.10;2.97;;;4.10;99.90;;;;;;4999881;28;20472;-86
2022/02/21 09:24:04;;;;;;;15.60;2.92;;;4.00;99.90;;;;;;5017823;28;20038;-87
2022/02/21 09:26:31;;;;;;;13.57;2.83;;;3.90;99.90;;;;;;5000637;28;20021;-89
2022/02/21 09:28:58;;;;;;;18.95;3.03;;;3.90;99.90;;;;;;5004799;28;20026;-88
2022/02/21 09:31:24;;;;;;;20.38;3.45;;;3.80;99.90;;;;;;5017095;28;20034;-86
2022/02/21 09:33:49;;;;;;;17.50;3.00;;;3.70;99.90;;;;;;5017457;28;20041;-87
2022/02/21 09:36:15;;;;;;;16.55;3.25;;;3.70;99.90;;;;;;5005466;28;20096;-88
2022/02/21 09:38:41;;;;;;;21.42;4.45;;;3.70;99.90;;;;;;4999461;28;20049;-88
2022/02/21 09:41:07;;;;;;;14.90;2.75;;;3.70;99.90;;;;;;4999225;28;20084;-87
2022/02/21 09:43:33;;;;;;;12.43;3.03;;;3.60;99.90;;;;;;4998588;28;20497;-87
2022/02/21 09:46:03;;;;;;;16.30;3.05;;;3.60;99.90;;;;;;5015814;28;20393;-86
2022/02/21 09:48:30;;;;;;;13.82;2.80;;;3.60;99.90;;;;;;4997038;28;20531;-88
2022/02/21 09:51:00;;;;;;;12.15;2.45;;;3.60;99.90;;;;;;5021870;28;20037;-87
2022/02/21 09:53:27;;;;;;;13.05;2.70;;;3.60;99.90;;;;;;5005741;28;20073;-88
2022/02/21 09:55:53;;;;;;;14.07;3.05;;;3.60;99.90;;;;;;4990217;28;20030;-87
2022/02/21 09:58:20;;;;;;;17.17;4.97;;;3.60;99.90;;;;;;4997141;28;20038;-89
2022/02/21 10:00:46;;;;;;;14.68;3.35;;;3.60;99.90;;;;;;5015731;28;20392;-88
2022/02/21 10:03:11;;;;;;;15.05;3.25;;;3.60;99.90;;;;;;4996549;28;20030;-87
2022/02/21 10:05:37;;;;;;;15.48;2.97;;;3.60;99.90;;;;;;5014168;28;20044;-86
2022/02/21 10:08:07;;;;;;;14.65;3.58;;;3.70;99.90;;;;;;5013547;28;20510;-85
2022/02/21 10:10:37;;;;;;;17.52;4.05;;;3.70;99.90;;;;;;4997258;28;20492;-86
2022/02/21 10:13:02;;;;;;;13.93;3.83;;;3.80;99.90;;;;;;4997943;28;20046;-87
2022/02/21 10:15:30;;;;;;;16.13;4.15;;;3.80;99.90;;;;;;4997335;28;20129;-86
2022/02/21 10:18:16;;;;;;;23.77;4.40;;;3.80;99.90;;;;;;5002401;28;20041;-87
2022/02/21 10:20:55;;;;;;;16.95;4.47;;;3.90;99.90;;;;;;5015037;28;20036;-88
2022/02/21 10:23:21;;;;;;;21.42;4.07;;;3.80;99.90;;;;;;4996185;28;20033;-87
2022/02/21 10:25:55;;;;;;;22.05;4.15;;;3.90;99.90;;;;;;5012192;28;20045;-87
2022/02/21 10:28:32;;;;;;;23.95;4.15;;;3.90;99.90;;;;;;5003333;28;20084;-87
2022/02/21 10:31:10;;;;;;;22.10;3.72;;;3.90;99.90;;;;;;4997522;28;20049;-87
2022/02/21 10:33:36;;;;;;;20.83;3.85;;;3.80;99.90;;;;;;5014238;28;20036;-88
2022/02/21 10:36:22;;;;;;;19.75;3.58;;;3.80;99.90;;;;;;4997363;28;20022;-88
2022/02/21 10:38:52;;;;;;;20.15;4.63;;;3.80;99.90;;;;;;4997568;28;20510;-88
2022/02/21 10:41:17;;;;;;;17.83;3.17;;;3.80;99.90;;;;;;4997074;28;20041;-89
2022/02/21 10:43:43;;;;;;;20.05;3.38;;;3.80;99.90;;;;;;4998266;28;20038;-89
2022/02/21 10:46:13;;;;;;;20.45;3.00;;;3.80;99.90;;;;;;5015326;28;20073;-88
2022/02/21 10:48:45;;;;;;;17.30;3.45;;;3.80;99.90;;;;;;4997959;28;20506;-89
2022/02/21 10:51:11;;;;;;;17.80;3.20;;;3.90;99.90;;;;;;4997589;28;20022;-88
2022/02/21 10:53:41;;;;;;;17.60;2.90;;;3.80;99.90;;;;;;4995872;28;20041;-89
2022/02/21 10:56:08;;;;;;;18.65;3.33;;;3.80;99.90;;;;;;4997556;28;20034;-89
2022/02/21 10:58:34;;;;;;;21.35;3.13;;;3.80;99.90;;;;;;4998478;28;20041;-90
2022/02/21 11:01:01;;;;;;;23.48;3.83;;;3.80;99.90;;;;;;4998284;28;20038;-90
2022/02/21 11:03:28;;;;;;;14.25;2.80;;;3.90;99.90;;;;;;4998226;28;20041;-89
2022/02/21 11:05:55;;;;;;;17.58;3.10;;;3.90;99.90;;;;;;4998106;28;20115;-88
2022/02/21 11:08:22;;;;;;;16.00;3.45;;;4.00;99.90;;;;;;4996909;28;20138;-87
2022/02/21 11:10:55;;;;;;;17.92;2.75;;;4.00;99.90;;;;;;4995055;28;20104;-89
2022/02/21 11:13:21;;;;;;;18.65;4.30;;;4.00;99.90;;;;;;4994400;28;20045;-87
2022/02/21 11:15:49;;;;;;;15.88;3.65;;;4.00;99.90;;;;;;4993790;28;20045;-88
2022/02/21 11:18:17;;;;;;;18.33;3.20;;;4.10;99.90;;;;;;4996392;28;20025;-88
2022/02/21 11:20:47;;;;;;;16.55;3.13;;;4.10;99.90;;;;;;4996863;28;20033;-87
2022/02/21 11:23:14;;;;;;;16.38;3.10;;;4.10;99.90;;;;;;4995520;28;20045;-88
2022/02/21 11:25:50;;;;;;;20.38;3.15;;;4.10;99.90;;;;;;4992608;28;20140;-88
2022/02/21 11:28:36;;;;;;;18.00;4.03;;;4.10;99.90;;;;;;4998170;28;20526;-87
2022/02/21 11:31:05;;;;;;;20.55;4.03;;;4.10;99.90;;;;;;4980397;28;20025;-87
2022/02/21 11:33:31;;;;;;;24.85;4.20;;;4.20;99.90;;;;;;4992692;28;20053;-86
2022/02/21 11:36:07;;;;;;;25.98;4.80;;;4.30;99.90;;;;;;4993962;28;20127;-86
2022/02/21 11:38:34;;;;;;;23.80;3.60;;;4.30;99.90;;;;;;4996201;28;20050;-88
2022/02/21 11:41:17;;;;;;;31.17;6.43;;;4.30;99.90;;;;;;5000061;28;20080;-88
2022/02/21 11:43:44;;;;;;;19.13;3.25;;;4.40;99.90;;;;;;4998663;28;20038;-88
2022/02/21 11:46:22;;;;;;;27.52;5.25;;;4.40;99.90;;;;;;5013946;28;20046;-85
2022/02/21 11:49:00;;;;;;;34.10;5.13;;;4.50;99.90;;;;;;4995310;28;20046;-88
2022/02/21 11:51:29;;;;;;;35.17;5.55;;;4.60;99.90;;;;;;4994950;28;20178;-88
2022/02/21 11:54:15;;;;;;;33.97;4.60;;;4.70;99.90;;;;;;4997653;28;20037;-86
2022/02/21 11:56:50;;;;;;;36.53;6.07;;;4.90;99.90;;;;;;5014180;28;20034;-86
2022/02/21 11:59:22;;;;;;;41.42;6.80;;;5.00;99.90;;;;;;4994136;28;20042;-87
2022/02/21 12:02:06;;;;;;;47.30;6.80;;;5.10;99.90;;;;;;4995104;28;20060;-86
2022/02/21 12:04:51;;;;;;;;;;;5.20;99.90;;;;;;4994683;28;20137;-88
2022/02/21 12:07:33;;;;;;;36.47;6.22;;;5.30;99.90;;;;;;5013727;28;19929;-88
2022/02/21 12:10:13;;;;;;;37.88;6.65;;;5.40;99.90;;;;;;5002291;28;20049;-88
2022/02/21 12:12:49;;;;;;;40.45;6.78;;;5.50;99.90;;;;;;5013574;28;20042;-91
2022/02/21 12:15:15;;;;;;;41.47;6.55;;;5.50;99.90;;;;;;5004113;28;20096;-90
2022/02/21 12:17:41;;;;;;;45.00;7.55;;;5.60;99.90;;;;;;5011492;28;20029;-90
2022/02/21 12:20:30;;;;;;;38.50;6.53;;;5.60;99.90;;;;;;5002166;28;20034;-89
2022/02/21 12:23:05;;;;;;;38.10;5.75;;;5.70;99.90;;;;;;5001891;28;20045;-87
2022/02/21 12:25:39;;;;;;;42.55;6.40;;;5.80;99.90;;;;;;5001418;28;20091;-89
2022/02/21 12:28:22;;;;;;;35.05;6.50;;;5.90;99.90;;;;;;5006086;28;20034;-89
2022/02/21 12:30:57;;;;;;;40.30;5.85;;;6.00;99.90;;;;;;5006472;28;20506;-87
2022/02/21 12:33:27;;;;;;;39.22;6.85;;;6.10;99.90;;;;;;5003392;28;20034;-88
2022/02/21 12:35:58;;;;;;;36.17;6.45;;;6.10;99.90;;;;;;5001092;28;20034;-89
2022/02/21 12:38:26;;;;;;;35.05;5.43;;;6.10;99.90;;;;;;5001197;28;20049;-90
2022/02/21 12:41:02;;;;;;;38.80;6.20;;;6.20;99.90;;;;;;5001075;28;20049;-90
2022/02/21 12:43:47;;;;;;;29.70;5.20;;;6.20;99.90;;;;;;5001406;28;20065;-90
2022/02/21 12:46:14;;;;;;;37.55;5.32;;;6.30;99.90;;;;;;5001300;28;20057;-89
2022/02/21 12:48:40;;;;;;;40.53;6.60;;;6.40;99.90;;;;;;5001078;28;20033;-89